createdAt,value
2022-12-23T00:00:30.877Z,110.10
2022-12-23T00:03:19.163Z,111.00
2022-12-23T00:05:47.336Z,114.30
2022-12-23T00:08:15.535Z,116.10
2022-12-23T00:10:43.867Z,115.10
2022-12-23T00:13:30.564Z,115.70
2022-12-23T00:16:05.034Z,105.80
2022-12-23T00:18:33.824Z,106.60
2022-12-23T00:21:15.260Z,105.70
2022-12-23T00:23:47.389Z,110.50
2022-12-23T00:26:27.285Z,112.20
2022-12-23T00:28:57.849Z,110.90
2022-12-23T00:31:26.618Z,111.20
2022-12-23T00:33:54.917Z,100.60
2022-12-23T00:36:30.671Z,108.00
2022-12-23T00:39:18.440Z,96.30
2022-12-23T00:42:04.994Z,93.10
2022-12-23T00:44:33.285Z,85.80
2022-12-23T00:47:01.516Z,83.90
2022-12-23T00:49:41.980Z,100.90
2022-12-23T00:52:15.695Z,193.20
2022-12-23T00:54:44.030Z,138.00
2022-12-23T00:57:12.218Z,109.80
2022-12-23T00:59:40.477Z,123.10
2022-12-23T01:05:29.242Z,134.90
2022-12-23T01:07:57.388Z,144.40
2022-12-23T01:10:25.499Z,168.10
2022-12-23T01:12:53.634Z,156.00
2022-12-23T01:15:21.870Z,124.70
2022-12-23T01:17:49.930Z,106.90
2022-12-23T01:20:18.133Z,98.50
2022-12-23T01:22:46.259Z,95.90
2022-12-23T01:25:14.369Z,99.60
2022-12-23T01:27:42.550Z,98.40
2022-12-23T01:30:10.999Z,96.60
2022-12-23T01:32:39.151Z,95.50
2022-12-23T01:35:07.613Z,100.30
2022-12-23T01:37:35.788Z,93.90
2022-12-23T01:40:04.423Z,89.60
2022-12-23T01:42:45.002Z,84.80
2022-12-23T01:45:29.391Z,86.10
2022-12-23T01:48:22.702Z,72.10
2022-12-23T01:51:05.148Z,80.80
2022-12-23T01:53:49.043Z,83.70
2022-12-23T01:56:30.272Z,79.50
2022-12-23T01:59:03.628Z,76.80
2022-12-23T02:01:50.561Z,77.50
2022-12-23T02:04:24.609Z,79.60
2022-12-23T02:07:11.154Z,83.50
2022-12-23T02:09:40.644Z,101.30
2022-12-23T02:12:41.847Z,111.80
2022-12-23T02:15:51.289Z,101.20
2022-12-23T02:18:51.443Z,100.50
2022-12-23T02:21:47.716Z,89.20
2022-12-23T02:25:07.032Z,88.90
2022-12-23T02:28:31.495Z,101.40
2022-12-23T02:33:37.810Z,84.80
2022-12-23T02:36:16.998Z,100.80
2022-12-23T02:39:06.943Z,103.40
2022-12-23T02:41:57.730Z,95.70
2022-12-23T02:44:40.087Z,100.50
2022-12-23T02:47:17.184Z,111.90
2022-12-23T02:49:57.145Z,121.30
2022-12-23T02:52:31.873Z,106.20
2022-12-23T02:55:16.183Z,110.40
2022-12-23T02:57:49.032Z,110.40
2022-12-23T03:00:18.878Z,112.90
2022-12-23T03:02:47.689Z,124.20
2022-12-23T03:05:46.376Z,106.30
2022-12-23T03:08:30.038Z,107.40
2022-12-23T03:11:18.540Z,107.20
2022-12-23T03:14:04.947Z,104.90
2022-12-23T03:17:01.959Z,105.20
2022-12-23T03:19:32.439Z,108.00
2022-12-23T03:22:38.138Z,106.80
2022-12-23T03:25:23.176Z,96.40
2022-12-23T03:28:08.936Z,99.50
2022-12-23T03:30:40.755Z,102.60
2022-12-23T03:33:40.059Z,102.70
2022-12-23T03:36:15.761Z,113.10
2022-12-23T03:38:45.944Z,101.60
2022-12-23T03:41:21.813Z,106.70
2022-12-23T03:43:57.647Z,102.00
2022-12-23T03:46:40.247Z,106.40
2022-12-23T03:49:35.281Z,113.80
2022-12-23T03:52:11.756Z,116.20
2022-12-23T03:54:54.753Z,106.70
2022-12-23T03:57:30.497Z,99.60
2022-12-23T03:59:58.691Z,113.50
2022-12-23T04:02:34.084Z,115.00
2022-12-23T04:05:25.348Z,106.90
2022-12-23T04:08:00.345Z,108.40
2022-12-23T04:10:28.967Z,112.80
2022-12-23T04:12:57.541Z,107.50
2022-12-23T04:15:28.069Z,102.40
2022-12-23T04:17:58.077Z,107.40
2022-12-23T04:20:26.291Z,98.20
2022-12-23T04:22:54.475Z,106.10
2022-12-23T04:25:22.658Z,96.10
2022-12-23T04:27:50.858Z,96.70
2022-12-23T04:30:19.166Z,95.50
2022-12-23T04:32:47.357Z,95.10
2022-12-23T04:35:15.646Z,93.90
2022-12-23T04:37:43.782Z,99.80
2022-12-23T04:40:12.275Z,105.90
2022-12-23T04:42:40.576Z,102.30
2022-12-23T04:45:09.768Z,101.40
2022-12-23T04:47:37.925Z,99.70
2022-12-23T04:50:07.591Z,96.00
2022-12-23T04:52:35.723Z,86.60
2022-12-23T04:55:04.119Z,90.40
2022-12-23T04:57:32.256Z,95.70
2022-12-23T05:00:00.360Z,93.90
2022-12-23T05:02:28.730Z,100.10
2022-12-23T05:04:56.995Z,90.00
2022-12-23T05:07:25.359Z,101.40
2022-12-23T05:09:53.544Z,97.90
2022-12-23T05:12:21.822Z,96.80
2022-12-23T05:14:49.964Z,108.60
2022-12-23T05:17:18.074Z,99.00
2022-12-23T05:19:46.138Z,102.20
2022-12-23T05:22:14.316Z,101.60
2022-12-23T05:24:42.399Z,97.90
2022-12-23T05:27:10.532Z,93.30
2022-12-23T05:29:38.800Z,99.90
2022-12-23T05:32:07.065Z,98.60
2022-12-23T05:34:35.276Z,102.90
2022-12-23T05:37:03.412Z,102.80
2022-12-23T05:39:31.575Z,105.00
2022-12-23T05:41:59.683Z,111.20
2022-12-23T05:44:27.836Z,119.00
2022-12-23T05:46:55.959Z,109.50
2022-12-23T05:49:25.473Z,93.20
2022-12-23T05:51:53.606Z,97.80
2022-12-23T05:54:21.730Z,92.20
2022-12-23T05:56:49.864Z,87.70
2022-12-23T05:59:18.062Z,80.00
2022-12-23T06:01:46.240Z,88.50
2022-12-23T06:04:14.588Z,84.30
2022-12-23T06:06:42.721Z,82.30
2022-12-23T06:09:10.936Z,84.80
2022-12-23T06:11:39.061Z,85.30
2022-12-23T06:14:07.620Z,88.10
2022-12-23T06:16:35.930Z,85.60
2022-12-23T06:19:04.226Z,91.00
2022-12-23T06:21:32.394Z,81.80
2022-12-23T06:24:00.655Z,89.20
2022-12-23T06:26:28.861Z,89.10
2022-12-23T06:28:56.957Z,92.70
2022-12-23T06:31:25.156Z,99.40
2022-12-23T06:33:53.331Z,123.90
2022-12-23T06:36:21.514Z,119.20
2022-12-23T06:38:49.887Z,92.10
2022-12-23T06:41:18.584Z,91.40
2022-12-23T06:43:49.945Z,81.40
2022-12-23T06:46:22.273Z,87.30
2022-12-23T06:48:50.493Z,90.50
2022-12-23T06:51:19.053Z,93.70
2022-12-23T06:53:47.423Z,87.00
2022-12-23T06:56:15.579Z,86.00
2022-12-23T06:58:43.670Z,89.60
2022-12-23T07:01:12.104Z,83.20
2022-12-23T07:03:40.437Z,94.10
2022-12-23T07:06:08.681Z,98.80
2022-12-23T07:08:36.863Z,91.40
2022-12-23T07:11:05.882Z,111.90
2022-12-23T07:13:34.823Z,113.30
2022-12-23T07:16:09.642Z,119.70
2022-12-23T07:18:37.848Z,110.90
2022-12-23T07:21:09.122Z,101.20
2022-12-23T07:23:43.840Z,118.10
2022-12-23T07:26:11.956Z,118.00
2022-12-23T07:28:40.060Z,114.60
2022-12-23T07:31:08.225Z,124.30
2022-12-23T07:33:36.344Z,170.80
2022-12-23T07:36:04.933Z,164.20
2022-12-23T07:38:33.028Z,109.50
2022-12-23T07:41:01.128Z,145.80
2022-12-23T07:43:29.285Z,117.30
2022-12-23T07:46:00.311Z,118.90
2022-12-23T07:48:29.033Z,141.90
2022-12-23T07:51:04.082Z,145.70
2022-12-23T07:53:32.198Z,142.20
2022-12-23T07:56:00.332Z,118.10
2022-12-23T07:58:28.581Z,111.00
2022-12-23T08:01:10.213Z,99.70
2022-12-23T08:03:38.457Z,99.10
2022-12-23T08:06:12.667Z,98.30
2022-12-23T08:08:43.375Z,93.60
2022-12-23T08:11:13.606Z,93.10
2022-12-23T08:13:44.355Z,101.30
2022-12-23T08:16:12.963Z,105.40
2022-12-23T08:18:42.397Z,103.70
2022-12-23T08:21:15.662Z,101.20
2022-12-23T08:23:44.253Z,104.50
2022-12-23T08:26:21.665Z,129.80
2022-12-23T08:28:53.550Z,126.60
2022-12-23T08:31:28.951Z,104.40
2022-12-23T08:33:58.725Z,136.60
2022-12-23T08:36:31.816Z,142.60
2022-12-23T08:39:06.218Z,130.20
2022-12-23T08:41:40.283Z,116.70
2022-12-23T08:44:09.968Z,150.20
2022-12-23T08:46:38.255Z,176.30
2022-12-23T08:49:07.897Z,145.60
2022-12-23T08:51:38.052Z,123.90
2022-12-23T08:54:06.835Z,114.50
2022-12-23T08:56:40.570Z,100.70
2022-12-23T08:59:19.047Z,107.50
2022-12-23T09:01:48.453Z,95.30
2022-12-23T09:04:17.074Z,101.10
2022-12-23T09:06:45.696Z,98.90
2022-12-23T09:09:15.856Z,114.30
2022-12-23T09:11:44.212Z,119.80
2022-12-23T09:14:14.258Z,102.00
2022-12-23T09:16:42.393Z,98.60
2022-12-23T09:19:10.549Z,112.00
2022-12-23T09:21:38.675Z,151.20
2022-12-23T09:24:07.000Z,134.30
2022-12-23T09:26:35.388Z,118.20
2022-12-23T09:29:03.641Z,114.90
2022-12-23T09:31:36.513Z,99.80
2022-12-23T09:34:06.418Z,96.40
2022-12-23T09:36:34.567Z,102.60
2022-12-23T09:39:03.475Z,98.20
2022-12-23T09:41:48.631Z,87.80
2022-12-23T09:44:44.341Z,91.60
2022-12-23T09:47:19.249Z,77.50
2022-12-23T09:49:55.440Z,90.00
2022-12-23T09:52:54.919Z,82.00
2022-12-23T09:55:32.157Z,94.00
2022-12-23T09:58:36.562Z,81.40
2022-12-23T10:01:24.697Z,78.10
2022-12-23T10:04:27.213Z,81.60
2022-12-23T10:07:04.479Z,82.20
2022-12-23T10:09:41.302Z,79.50
2022-12-23T10:12:39.109Z,87.10
2022-12-23T10:15:42.112Z,119.00
2022-12-23T10:18:53.650Z,100.20
2022-12-23T10:21:36.429Z,102.30
2022-12-23T10:24:22.781Z,93.40
2022-12-23T10:27:13.599Z,83.90
2022-12-23T10:29:42.526Z,99.90
2022-12-23T10:32:43.869Z,94.20
2022-12-23T10:35:38.816Z,94.70
2022-12-23T10:38:35.419Z,84.00
2022-12-23T10:41:35.664Z,85.10
2022-12-23T10:44:47.280Z,87.00
2022-12-23T10:47:42.554Z,82.20
2022-12-23T10:50:47.551Z,83.80
2022-12-23T10:53:54.185Z,92.80
2022-12-23T10:56:23.316Z,82.30
2022-12-23T10:58:56.691Z,86.70
2022-12-23T11:01:27.300Z,87.80
2022-12-23T11:04:19.861Z,89.00
2022-12-23T11:07:10.818Z,79.50
2022-12-23T11:09:45.824Z,77.50
2022-12-23T11:12:15.036Z,76.70
2022-12-23T11:14:57.910Z,83.10
2022-12-23T11:17:29.939Z,74.80
2022-12-23T11:20:10.266Z,77.10
2022-12-23T11:22:58.246Z,79.70
2022-12-23T11:25:40.788Z,75.10
2022-12-23T11:28:22.275Z,71.10
2022-12-23T11:30:56.637Z,71.10
2022-12-23T11:33:31.369Z,70.80
2022-12-23T11:36:12.270Z,65.50
2022-12-23T11:39:13.912Z,68.80
2022-12-23T11:41:47.854Z,77.20
2022-12-23T11:44:31.882Z,70.20
2022-12-23T11:47:23.012Z,74.80
2022-12-23T11:49:54.990Z,74.40
2022-12-23T11:52:31.296Z,73.30
2022-12-23T11:55:02.516Z,67.50
2022-12-23T11:57:33.372Z,67.70
2022-12-23T12:00:04.892Z,70.30
2022-12-23T12:02:41.940Z,74.60
2022-12-23T12:05:51.694Z,70.10
2022-12-23T12:08:24.980Z,71.50
2022-12-23T12:11:00.855Z,69.20
2022-12-23T12:13:42.421Z,70.50
2022-12-23T12:16:47.610Z,79.30
2022-12-23T12:19:25.031Z,74.00
2022-12-23T12:22:00.774Z,65.60
2022-12-23T12:24:40.415Z,73.70
2022-12-23T12:27:11.947Z,64.60
2022-12-23T12:30:04.542Z,68.50
2022-12-23T12:33:00.888Z,68.70
2022-12-23T12:35:44.236Z,68.20
2022-12-23T12:38:30.177Z,68.20
2022-12-23T12:41:07.374Z,70.70
2022-12-23T12:43:46.599Z,68.40
2022-12-23T12:47:15.993Z,65.70
2022-12-23T12:50:06.416Z,66.10
2022-12-23T12:52:40.721Z,67.60
2022-12-23T12:55:29.283Z,64.00
2022-12-23T12:57:57.713Z,64.50
2022-12-23T13:00:25.972Z,60.40
2022-12-23T13:03:28.923Z,61.10
2022-12-23T13:06:00.583Z,61.80
2022-12-23T13:09:02.106Z,65.20
2022-12-23T13:11:56.158Z,68.30
2022-12-23T13:14:54.294Z,64.80
2022-12-23T13:17:35.148Z,64.20
2022-12-23T13:20:24.093Z,62.30
2022-12-23T13:23:20.839Z,68.60
2022-12-23T13:26:05.451Z,59.00
2022-12-23T13:29:08.341Z,65.60
2022-12-23T13:32:28.360Z,60.60
2022-12-23T13:35:33.655Z,54.50
2022-12-23T13:38:38.656Z,64.60
2022-12-23T13:41:36.960Z,66.40
2022-12-23T13:44:09.622Z,68.60
2022-12-23T13:46:52.349Z,63.00
2022-12-23T13:49:58.561Z,70.90
2022-12-23T13:52:34.067Z,66.40
2022-12-23T13:55:57.871Z,54.20
2022-12-23T13:58:31.301Z,57.30
2022-12-23T14:01:08.669Z,61.30
2022-12-23T14:03:39.101Z,58.60
2022-12-23T14:06:39.481Z,73.40
2022-12-23T14:09:08.027Z,61.40
2022-12-23T14:11:36.762Z,72.60
2022-12-23T14:14:17.365Z,70.30
2022-12-23T14:17:10.303Z,61.80
2022-12-23T14:20:18.008Z,67.80
2022-12-23T14:23:33.403Z,68.30
2022-12-23T14:26:32.119Z,62.00
2022-12-23T14:29:09.170Z,69.20
2022-12-23T14:31:44.701Z,63.70
2022-12-23T14:34:18.831Z,61.30
2022-12-23T14:37:30.012Z,60.90
2022-12-23T14:39:59.513Z,65.20
2022-12-23T14:42:45.938Z,64.10
2022-12-23T14:45:42.361Z,69.10
2022-12-23T14:48:44.671Z,71.60
2022-12-23T14:51:25.401Z,71.60
2022-12-23T14:53:59.434Z,68.10
2022-12-23T14:56:39.516Z,60.80
2022-12-23T14:59:07.586Z,68.90
2022-12-23T15:01:48.214Z,64.20
2022-12-23T15:04:21.673Z,77.30
2022-12-23T15:09:37.420Z,161.80
2022-12-23T15:12:14.835Z,182.10
2022-12-23T15:14:57.700Z,124.10
2022-12-23T15:17:36.269Z,102.70
2022-12-23T15:20:11.093Z,112.90
2022-12-23T15:22:42.617Z,200.00
2022-12-23T15:25:33.682Z,142.50
2022-12-23T15:28:03.608Z,121.10
2022-12-23T15:30:45.239Z,114.60
2022-12-23T15:34:02.181Z,96.10
2022-12-23T15:36:10.489Z,93.30
2022-12-23T15:38:39.693Z,89.50
2022-12-23T15:41:17.278Z,602.80
2022-12-23T15:43:46.434Z,405.20
2022-12-23T15:46:29.157Z,305.80
2022-12-23T15:48:58.485Z,218.00
2022-12-23T15:52:07.108Z,124.50
2022-12-23T15:54:34.796Z,87.80
2022-12-23T15:57:04.209Z,83.40
2022-12-23T15:59:38.852Z,108.10
2022-12-23T16:02:59.786Z,110.80
2022-12-23T16:05:33.030Z,100.90
2022-12-23T16:08:16.543Z,109.70
2022-12-23T16:11:18.376Z,135.20
2022-12-23T16:14:00.200Z,102.10
2022-12-23T16:16:42.701Z,100.70
2022-12-23T16:19:44.656Z,103.60
2022-12-23T16:22:38.047Z,100.90
2022-12-23T16:25:14.997Z,119.30
2022-12-23T16:27:46.493Z,114.20
2022-12-23T16:30:22.290Z,106.70
2022-12-23T16:32:56.273Z,101.60
2022-12-23T16:35:31.595Z,112.50
2022-12-23T16:38:10.325Z,110.80
2022-12-23T16:40:38.822Z,114.80
2022-12-23T16:43:07.282Z,104.10
2022-12-23T16:45:37.284Z,109.80
2022-12-23T16:48:21.026Z,103.50
2022-12-23T16:50:50.020Z,114.10
2022-12-23T16:53:18.260Z,110.60
2022-12-23T16:55:53.858Z,113.00
2022-12-23T16:58:26.772Z,172.10
2022-12-23T17:00:55.655Z,157.80
2022-12-23T17:03:23.878Z,156.50
2022-12-23T17:05:52.006Z,282.90
2022-12-23T17:08:21.010Z,307.80
2022-12-23T17:10:50.275Z,239.10
2022-12-23T17:13:18.878Z,287.70
2022-12-23T17:15:47.011Z,230.10
2022-12-23T17:18:18.456Z,172.40
2022-12-23T17:20:48.879Z,155.70
2022-12-23T17:23:31.244Z,234.20
2022-12-23T17:25:59.358Z,147.90
2022-12-23T17:28:32.544Z,141.40
2022-12-23T17:33:32.202Z,117.30
2022-12-23T17:36:01.120Z,168.20
2022-12-23T17:38:30.061Z,166.70
2022-12-23T17:40:58.684Z,162.90
2022-12-23T17:43:27.379Z,157.10
2022-12-23T17:45:55.575Z,148.50
2022-12-23T17:48:29.551Z,136.70
2022-12-23T17:50:59.805Z,123.50
2022-12-23T17:53:27.890Z,119.70
2022-12-23T17:55:56.039Z,136.00
2022-12-23T17:58:24.179Z,118.30
2022-12-23T18:00:52.459Z,135.70
2022-12-23T18:03:23.829Z,118.50
2022-12-23T18:05:59.361Z,102.60
2022-12-23T18:08:29.699Z,98.70
2022-12-23T18:10:58.510Z,94.50
2022-12-23T18:13:26.680Z,91.40
2022-12-23T18:15:54.834Z,80.90
2022-12-23T18:18:31.308Z,85.40
2022-12-23T18:21:05.443Z,69.30
2022-12-23T18:23:34.807Z,65.80
2022-12-23T18:26:03.319Z,77.20
2022-12-23T18:28:31.485Z,69.50
2022-12-23T18:30:59.691Z,76.10
2022-12-23T18:33:29.434Z,77.70
2022-12-23T18:35:58.016Z,79.00
2022-12-23T18:38:26.170Z,90.00
2022-12-23T18:40:56.692Z,112.30
2022-12-23T18:43:25.570Z,97.60
2022-12-23T18:45:54.334Z,110.40
2022-12-23T18:48:22.819Z,129.80
2022-12-23T18:50:50.985Z,105.00
2022-12-23T18:53:24.528Z,109.30
2022-12-23T18:55:54.798Z,88.10
2022-12-23T18:58:24.422Z,99.50
2022-12-23T19:00:53.194Z,84.00
2022-12-23T19:03:31.740Z,91.10
2022-12-23T19:06:06.641Z,94.30
2022-12-23T19:08:37.297Z,102.60
2022-12-23T19:11:19.014Z,107.20
2022-12-23T19:13:48.324Z,111.80
2022-12-23T19:16:19.597Z,103.40
2022-12-23T19:18:49.385Z,95.50
2022-12-23T19:21:18.303Z,94.20
2022-12-23T19:23:46.402Z,97.30
2022-12-23T19:26:15.041Z,106.60
2022-12-23T19:28:43.597Z,102.00
2022-12-23T19:31:14.938Z,97.60
2022-12-23T19:33:46.216Z,91.80
2022-12-23T19:36:24.239Z,92.50
2022-12-23T19:38:52.708Z,88.10
2022-12-23T19:41:20.828Z,93.10
2022-12-23T19:43:49.010Z,97.00
2022-12-23T19:46:17.749Z,94.20
2022-12-23T19:48:52.331Z,109.40
2022-12-23T19:51:20.692Z,106.50
2022-12-23T19:53:51.745Z,85.40
2022-12-23T19:56:21.253Z,85.80
2022-12-23T19:58:49.929Z,83.50
2022-12-23T20:01:22.439Z,93.30
2022-12-23T20:03:52.873Z,102.30
2022-12-23T20:06:34.204Z,99.50
2022-12-23T20:09:06.527Z,97.50
2022-12-23T20:11:41.961Z,97.90
2022-12-23T20:14:11.472Z,99.50
2022-12-23T20:16:40.806Z,92.50
2022-12-23T20:19:09.076Z,99.90
2022-12-23T20:21:37.736Z,93.50
2022-12-23T20:24:06.848Z,98.10
2022-12-23T20:26:35.104Z,98.20
2022-12-23T20:29:03.997Z,106.40
2022-12-23T20:31:35.655Z,101.60
2022-12-23T20:34:07.872Z,104.20
2022-12-23T20:36:36.788Z,111.10
2022-12-23T20:39:06.226Z,114.20
2022-12-23T20:41:34.523Z,105.40
2022-12-23T20:44:32.947Z,111.80
2022-12-23T20:46:50.895Z,106.80
2022-12-23T20:49:19.137Z,114.00
2022-12-23T20:51:47.246Z,123.40
2022-12-23T20:54:15.586Z,112.30
2022-12-23T20:56:43.711Z,104.90
2022-12-23T20:59:11.834Z,111.90
2022-12-23T21:01:40.982Z,129.50
2022-12-23T21:04:15.956Z,122.20
2022-12-23T21:06:44.750Z,121.70
2022-12-23T21:09:15.692Z,126.80
2022-12-23T21:11:46.924Z,117.80
2022-12-23T21:14:15.894Z,108.20
2022-12-23T21:16:45.154Z,109.40
2022-12-23T21:19:20.374Z,106.80
2022-12-23T21:21:49.925Z,111.20
2022-12-23T21:24:18.846Z,119.80
2022-12-23T21:26:55.399Z,123.40
2022-12-23T21:29:25.841Z,119.30
2022-12-23T21:31:55.190Z,114.60
2022-12-23T21:34:23.782Z,111.20
2022-12-23T21:36:51.998Z,161.40
2022-12-23T21:39:20.244Z,142.90
2022-12-23T21:41:51.048Z,152.20
2022-12-23T21:44:19.338Z,126.20
2022-12-23T21:46:51.080Z,123.70
2022-12-23T21:49:20.234Z,131.70
2022-12-23T21:51:48.499Z,90.70
2022-12-23T21:54:16.728Z,91.30
2022-12-23T21:56:44.894Z,80.40
2022-12-23T21:59:15.211Z,76.60
2022-12-23T22:01:44.019Z,77.20
2022-12-23T22:04:12.586Z,76.30
2022-12-23T22:06:44.051Z,82.80
2022-12-23T22:09:18.051Z,79.90
2022-12-23T22:11:48.259Z,72.80
2022-12-23T22:14:19.679Z,75.20
2022-12-23T22:16:47.878Z,78.40
2022-12-23T22:19:16.334Z,80.50
2022-12-23T22:21:44.572Z,76.90
2022-12-23T22:24:12.846Z,76.70
2022-12-23T22:26:41.986Z,77.90
2022-12-23T22:29:11.342Z,85.40
2022-12-23T22:31:53.391Z,79.00
2022-12-23T22:34:23.323Z,82.90
2022-12-23T22:36:51.523Z,103.90
2022-12-23T22:39:21.651Z,95.80
2022-12-23T22:41:51.398Z,97.00
2022-12-23T22:44:21.297Z,89.30
2022-12-23T22:46:50.047Z,95.90
2022-12-23T22:49:18.524Z,86.60
2022-12-23T22:51:46.761Z,77.70
2022-12-23T22:54:15.110Z,78.00
2022-12-23T22:56:46.005Z,101.90
2022-12-23T22:59:25.288Z,84.70
2022-12-23T23:01:54.323Z,89.90
2022-12-23T23:04:23.334Z,91.80
2022-12-23T23:06:51.579Z,100.60
2022-12-23T23:09:22.034Z,82.70
2022-12-23T23:11:50.633Z,85.50
2022-12-23T23:14:20.363Z,88.80
2022-12-23T23:16:48.841Z,94.90
2022-12-23T23:19:20.336Z,88.80
2022-12-23T23:21:48.958Z,81.90
2022-12-23T23:24:17.614Z,81.30
2022-12-23T23:26:45.786Z,98.60
2022-12-23T23:29:14.997Z,88.40
2022-12-23T23:31:44.210Z,82.70
2022-12-23T23:34:13.549Z,93.80
2022-12-23T23:36:41.916Z,82.50
2022-12-23T23:39:13.078Z,80.20
2022-12-23T23:41:41.742Z,80.00
2022-12-23T23:44:11.327Z,82.10
2022-12-23T23:46:40.236Z,76.10
2022-12-23T23:49:08.628Z,85.40
2022-12-23T23:51:37.258Z,82.50
2022-12-23T23:54:06.511Z,82.00
2022-12-23T23:56:38.846Z,86.40
2022-12-23T23:59:09.345Z,98.80
